Disclaimer

Please do not use the information listed here in-flight or in-navigation, as they are not provided to us by the airports but are provided by volunteers, so they might be outdated.

Search


Regions


Airport information page

No radio frequency information is available.

Airport informations:
Latitude: 45° 27' 45.60" N
Longitude: 018° 48' 36.56" E
Elevation: 290 feet - 88 meters
Operating hours: N/A
Operating agency: Civil government, landing fees and diplomatic clearance may be required
Timezone: UTC+1(+2DT)
Fuel: N/A

Runway information:
11/29 - 8199 x 148 feet< - >2499 x 45 meters

Recent METARs:
LDOS 180827Z 09008KT 7000 -SN SCT010 BKN027 02/00 Q1026 R11/1///94
LDOS 180900Z 09008KT 7000 -SN SCT010 BKN027 02/01 Q1026 R11/1///94
LDOS 180930Z 08008KT 7000 BKN010 OVC027 02/01 Q1026 R11/1///94

Airport on the map: